createdAt,value
2018-03-24T00:00:44.247Z,943.25
2018-03-24T00:01:44.260Z,943.26
2018-03-24T00:02:44.277Z,943.27
2018-03-24T00:03:44.290Z,943.22
2018-03-24T00:04:44.456Z,943.24
2018-03-24T00:05:44.319Z,943.25
2018-03-24T00:06:44.334Z,943.2
2018-03-24T00:07:44.350Z,943.22
2018-03-24T00:08:44.363Z,943.19
2018-03-24T00:09:44.379Z,943.2
2018-03-24T00:10:44.394Z,943.15
2018-03-24T00:11:44.411Z,943.18
2018-03-24T00:12:44.424Z,943.16
2018-03-24T00:13:44.440Z,943.19
2018-03-24T00:14:44.455Z,943.17
2018-03-24T00:15:44.469Z,943.17
2018-03-24T00:16:44.485Z,943.12
2018-03-24T00:17:44.502Z,943.14
2018-03-24T00:18:44.515Z,943.11
2018-03-24T00:19:44.580Z,943.12
2018-03-24T00:20:44.549Z,943.14
2018-03-24T00:21:44.560Z,943.11
2018-03-24T00:22:44.574Z,943.11
2018-03-24T00:23:44.589Z,943.09
2018-03-24T00:24:44.627Z,943.09
2018-03-24T00:25:44.625Z,943.06
2018-03-24T00:26:44.634Z,943.07
2018-03-24T00:27:44.649Z,943
2018-03-24T00:28:44.663Z,943.03
2018-03-24T00:29:44.679Z,943.04
2018-03-24T00:30:44.693Z,943.04
2018-03-24T00:31:44.712Z,943.01
2018-03-24T00:32:44.722Z,943.03
2018-03-24T00:33:44.743Z,943
2018-03-24T00:34:44.806Z,942.99
2018-03-24T00:35:44.767Z,942.94
2018-03-24T00:36:44.781Z,942.95
2018-03-24T00:37:44.795Z,942.95
2018-03-24T00:38:44.811Z,942.92
2018-03-24T00:39:44.826Z,942.96
2018-03-24T00:40:44.841Z,942.91
2018-03-24T00:41:44.855Z,942.92
2018-03-24T00:42:44.869Z,942.91
2018-03-24T00:43:44.886Z,942.87
2018-03-24T00:44:44.906Z,942.8
2018-03-24T00:45:44.914Z,942.84
2018-03-24T00:46:44.928Z,942.82
2018-03-24T00:47:44.944Z,942.84
2018-03-24T00:48:44.959Z,942.77
2018-03-24T00:49:45.022Z,942.78
2018-03-24T00:50:44.987Z,942.79
2018-03-24T00:51:45.002Z,942.75
2018-03-24T00:52:45.021Z,942.77
2018-03-24T00:53:45.043Z,942.77
2018-03-24T00:54:45.050Z,942.73
2018-03-24T00:55:45.061Z,942.75
2018-03-24T00:56:45.075Z,942.75
2018-03-24T00:57:45.090Z,942.73
2018-03-24T00:58:45.103Z,942.73
2018-03-24T00:59:45.118Z,942.71
2018-03-24T01:00:45.133Z,942.72
2018-03-24T01:01:45.148Z,942.72
2018-03-24T01:02:45.163Z,942.65
2018-03-24T01:03:45.175Z,942.64
2018-03-24T01:04:45.341Z,942.63
2018-03-24T01:05:45.207Z,942.62
2018-03-24T01:06:45.219Z,942.63
2018-03-24T01:07:45.235Z,942.61
2018-03-24T01:08:45.249Z,942.6
2018-03-24T01:09:45.265Z,942.61
2018-03-24T01:10:45.279Z,942.57
2018-03-24T01:11:45.294Z,942.6
2018-03-24T01:12:45.308Z,942.56
2018-03-24T01:13:45.322Z,942.6
2018-03-24T01:14:45.337Z,942.59
2018-03-24T01:15:45.351Z,942.56
2018-03-24T01:16:45.367Z,942.56
2018-03-24T01:17:45.380Z,942.56
2018-03-24T01:18:45.395Z,942.53
2018-03-24T01:19:45.459Z,942.53
2018-03-24T01:20:45.425Z,942.55
2018-03-24T01:21:45.437Z,942.53
2018-03-24T01:22:45.460Z,942.48
2018-03-24T01:23:45.467Z,942.49
2018-03-24T01:24:45.489Z,942.47
2018-03-24T01:25:45.497Z,942.45
2018-03-24T01:26:45.511Z,942.47
2018-03-24T01:27:45.528Z,942.45
2018-03-24T01:28:45.540Z,942.49
2018-03-24T01:29:45.555Z,942.47
2018-03-24T01:30:45.570Z,942.46
2018-03-24T01:31:45.584Z,942.44
2018-03-24T01:32:45.599Z,942.47
2018-03-24T01:33:45.615Z,942.46
2018-03-24T01:34:45.679Z,942.46
2018-03-24T01:35:45.643Z,942.45
2018-03-24T01:36:45.657Z,942.46
2018-03-24T01:37:45.681Z,942.44
2018-03-24T01:38:45.688Z,942.43
2018-03-24T01:39:45.746Z,942.39
2018-03-24T01:40:45.715Z,942.41
2018-03-24T01:41:45.730Z,942.37
2018-03-24T01:42:45.748Z,942.38
2018-03-24T01:43:45.772Z,942.37
2018-03-24T01:44:45.775Z,942.38
2018-03-24T01:45:45.789Z,942.37
2018-03-24T01:46:45.804Z,942.33
2018-03-24T01:47:45.819Z,942.37
2018-03-24T01:48:45.832Z,942.37
2018-03-24T01:49:45.898Z,942.32
2018-03-24T01:50:45.861Z,942.3
2018-03-24T01:51:45.878Z,942.31
2018-03-24T01:52:45.892Z,942.29
2018-03-24T01:53:45.906Z,942.27
2018-03-24T01:54:45.967Z,942.31
2018-03-24T01:55:45.932Z,942.32
2018-03-24T01:56:45.947Z,942.29
2018-03-24T01:57:45.961Z,942.28
2018-03-24T01:58:45.974Z,942.26
2018-03-24T01:59:46.098Z,942.24
2018-03-24T02:00:46.005Z,942.28
2018-03-24T02:01:46.018Z,942.24
2018-03-24T02:02:46.034Z,942.24
2018-03-24T02:03:46.046Z,942.19
2018-03-24T02:04:46.062Z,942.16
2018-03-24T02:05:46.075Z,942.16
2018-03-24T02:06:46.088Z,942.15
2018-03-24T02:07:46.103Z,942.09
2018-03-24T02:08:46.127Z,942.03
2018-03-24T02:09:46.182Z,942.01
2018-03-24T02:10:46.145Z,942.01
2018-03-24T02:11:46.160Z,941.98
2018-03-24T02:12:46.173Z,941.96
2018-03-24T02:13:46.187Z,941.96
2018-03-24T02:14:46.201Z,941.95
2018-03-24T02:15:46.216Z,941.91
2018-03-24T02:16:46.229Z,941.9
2018-03-24T02:17:46.243Z,941.92
2018-03-24T02:18:46.257Z,941.97
2018-03-24T02:19:46.274Z,941.91
2018-03-24T02:20:46.296Z,941.98
2018-03-24T02:21:46.299Z,941.95
2018-03-24T02:22:46.315Z,941.94
2018-03-24T02:23:46.325Z,941.93
2018-03-24T02:24:46.400Z,941.92
2018-03-24T02:25:46.354Z,941.95
2018-03-24T02:26:46.369Z,941.9
2018-03-24T02:27:46.381Z,941.93
2018-03-24T02:28:46.395Z,941.93
2018-03-24T02:29:46.410Z,941.85
2018-03-24T02:30:46.423Z,941.89
2018-03-24T02:31:46.438Z,941.87
2018-03-24T02:32:46.456Z,941.86
2018-03-24T02:33:46.466Z,941.89
2018-03-24T02:34:46.479Z,941.85
2018-03-24T02:35:46.492Z,941.87
2018-03-24T02:36:46.508Z,941.86
2018-03-24T02:37:46.526Z,941.83
2018-03-24T02:38:46.535Z,941.8
2018-03-24T02:39:46.598Z,941.78
2018-03-24T02:40:46.562Z,941.78
2018-03-24T02:41:46.630Z,941.76
2018-03-24T02:42:46.590Z,941.77
2018-03-24T02:43:46.606Z,941.76
2018-03-24T02:44:46.631Z,941.77
2018-03-24T02:45:46.633Z,941.74
2018-03-24T02:46:46.645Z,941.74
2018-03-24T02:47:46.659Z,941.7
2018-03-24T02:48:46.671Z,941.71
2018-03-24T02:49:46.682Z,941.67
2018-03-24T02:50:46.699Z,941.7
2018-03-24T02:51:46.715Z,941.66
2018-03-24T02:52:46.728Z,941.67
2018-03-24T02:53:46.740Z,941.67
2018-03-24T02:54:46.808Z,941.63
2018-03-24T02:55:46.784Z,941.64
2018-03-24T02:56:46.783Z,941.63
2018-03-24T02:57:46.796Z,941.58
2018-03-24T02:58:46.809Z,941.65
2018-03-24T02:59:46.824Z,941.6
2018-03-24T03:00:46.838Z,941.59
2018-03-24T03:01:46.850Z,941.63
2018-03-24T03:02:46.863Z,941.6
2018-03-24T03:03:46.876Z,941.62
2018-03-24T03:04:46.892Z,941.62
2018-03-24T03:05:46.905Z,941.57
2018-03-24T03:06:46.919Z,941.61
2018-03-24T03:07:46.932Z,941.56
2018-03-24T03:08:46.946Z,941.62
2018-03-24T03:09:47.009Z,941.61
2018-03-24T03:10:46.972Z,941.59
2018-03-24T03:11:46.985Z,941.56
2018-03-24T03:12:47.000Z,941.59
2018-03-24T03:13:47.014Z,941.58
2018-03-24T03:14:47.025Z,941.54
2018-03-24T03:15:47.040Z,941.56
2018-03-24T03:16:47.054Z,941.55
2018-03-24T03:17:47.067Z,941.54
2018-03-24T03:18:47.079Z,941.5
2018-03-24T03:19:47.094Z,941.54
2018-03-24T03:20:47.107Z,941.48
2018-03-24T03:21:47.121Z,941.48
2018-03-24T03:22:47.135Z,941.46
2018-03-24T03:23:47.149Z,941.46
2018-03-24T03:24:47.211Z,941.47
2018-03-24T03:25:47.202Z,941.46
2018-03-24T03:26:47.188Z,941.46
2018-03-24T03:27:47.202Z,941.45
2018-03-24T03:28:47.216Z,941.42
2018-03-24T03:29:47.228Z,941.45
2018-03-24T03:30:47.245Z,941.41
2018-03-24T03:31:47.257Z,941.41
2018-03-24T03:32:47.268Z,941.42
2018-03-24T03:33:47.282Z,941.4
2018-03-24T03:34:47.307Z,941.4
2018-03-24T03:35:47.309Z,941.38
2018-03-24T03:36:47.322Z,941.38
2018-03-24T03:37:47.336Z,941.4
2018-03-24T03:38:47.355Z,941.44
2018-03-24T03:39:47.413Z,941.37
2018-03-24T03:40:47.376Z,941.38
2018-03-24T03:41:47.388Z,941.38
2018-03-24T03:42:47.402Z,941.38
2018-03-24T03:43:47.414Z,941.41
2018-03-24T03:44:47.479Z,941.35
2018-03-24T03:45:47.443Z,941.37
2018-03-24T03:46:47.456Z,941.35
2018-03-24T03:47:47.470Z,941.3
2018-03-24T03:48:47.484Z,941.31
2018-03-24T03:49:47.496Z,941.26
2018-03-24T03:50:47.510Z,941.25
2018-03-24T03:51:47.521Z,941.23
2018-03-24T03:52:47.535Z,941.26
2018-03-24T03:53:47.549Z,941.25
2018-03-24T03:54:47.566Z,941.28
2018-03-24T03:55:47.574Z,941.21
2018-03-24T03:56:47.590Z,941.25
2018-03-24T03:57:47.603Z,941.24
2018-03-24T03:58:47.615Z,941.21
2018-03-24T03:59:47.678Z,941.22
2018-03-24T04:00:47.642Z,941.22
2018-03-24T04:01:47.657Z,941.2
2018-03-24T04:02:47.668Z,941.19
2018-03-24T04:03:47.682Z,941.19
2018-03-24T04:04:47.699Z,941.18
2018-03-24T04:05:47.706Z,941.15
2018-03-24T04:06:47.720Z,941.11
2018-03-24T04:07:47.738Z,941.12
2018-03-24T04:08:47.755Z,941.14
2018-03-24T04:09:47.760Z,941.14
2018-03-24T04:10:47.773Z,941.15
2018-03-24T04:11:47.787Z,941.09
2018-03-24T04:12:47.801Z,941.12
2018-03-24T04:13:47.812Z,941.08
2018-03-24T04:14:47.876Z,941.04
2018-03-24T04:15:47.840Z,941.06
2018-03-24T04:16:47.852Z,941.03
2018-03-24T04:17:47.866Z,941.04
2018-03-24T04:18:47.878Z,941
2018-03-24T04:19:47.892Z,941.02
2018-03-24T04:20:47.905Z,941
2018-03-24T04:21:47.918Z,941.05
2018-03-24T04:22:47.931Z,941.05
2018-03-24T04:23:47.945Z,941.03
2018-03-24T04:24:47.956Z,941.06
2018-03-24T04:25:47.972Z,941.05
2018-03-24T04:26:47.984Z,940.98
2018-03-24T04:27:47.997Z,940.97
2018-03-24T04:28:48.010Z,940.97
2018-03-24T04:29:48.072Z,941.01
2018-03-24T04:30:48.036Z,940.97
2018-03-24T04:31:48.048Z,940.96
2018-03-24T04:32:48.063Z,940.95
2018-03-24T04:33:48.076Z,940.92
2018-03-24T04:34:48.095Z,940.93
2018-03-24T04:35:48.100Z,940.94
2018-03-24T04:36:48.115Z,940.95
2018-03-24T04:37:48.127Z,940.9
2018-03-24T04:38:48.138Z,940.9
2018-03-24T04:39:48.152Z,940.88
2018-03-24T04:40:48.165Z,940.89
2018-03-24T04:41:48.179Z,940.89
2018-03-24T04:42:48.191Z,940.84
2018-03-24T04:43:48.205Z,940.85
2018-03-24T04:44:48.231Z,940.84
2018-03-24T04:45:48.231Z,940.87
2018-03-24T04:46:48.244Z,940.87
2018-03-24T04:47:48.256Z,940.89
2018-03-24T04:48:48.318Z,940.87
2018-03-24T04:49:48.288Z,940.84
2018-03-24T04:50:48.294Z,940.85
2018-03-24T04:51:48.312Z,940.84
2018-03-24T04:52:48.320Z,940.81
2018-03-24T04:53:48.332Z,940.85
2018-03-24T04:54:48.345Z,940.82
2018-03-24T04:55:48.358Z,940.83
2018-03-24T04:56:48.373Z,940.81
2018-03-24T04:57:48.383Z,940.76
2018-03-24T04:58:48.395Z,940.79
2018-03-24T04:59:48.410Z,940.79
2018-03-24T05:00:48.422Z,940.77
2018-03-24T05:01:48.435Z,940.76
2018-03-24T05:02:48.450Z,940.8
2018-03-24T05:03:48.528Z,940.81
2018-03-24T05:04:48.476Z,940.79
2018-03-24T05:05:48.490Z,940.78
2018-03-24T05:06:48.500Z,940.81
2018-03-24T05:07:48.513Z,940.8
2018-03-24T05:08:48.525Z,940.81
2018-03-24T05:09:48.538Z,940.81
2018-03-24T05:10:48.551Z,940.8
2018-03-24T05:11:48.563Z,940.83
2018-03-24T05:12:48.576Z,940.79
2018-03-24T05:13:48.589Z,940.79
2018-03-24T05:14:48.603Z,940.78
2018-03-24T05:15:48.615Z,940.79
2018-03-24T05:16:48.628Z,940.78
2018-03-24T05:17:48.641Z,940.77
2018-03-24T05:18:48.704Z,940.79
2018-03-24T05:19:48.665Z,940.75
2018-03-24T05:20:48.680Z,940.78
2018-03-24T05:21:48.692Z,940.79
2018-03-24T05:22:48.704Z,940.75
2018-03-24T05:23:48.717Z,940.77
2018-03-24T05:24:48.732Z,940.76
2018-03-24T05:25:48.744Z,940.76
2018-03-24T05:26:48.757Z,940.74
2018-03-24T05:27:48.781Z,940.76
2018-03-24T05:28:48.787Z,940.77
2018-03-24T05:29:48.793Z,940.69
2018-03-24T05:30:48.857Z,940.66
2018-03-24T05:31:48.821Z,940.69
2018-03-24T05:32:48.832Z,940.7
2018-03-24T05:33:48.895Z,940.69
2018-03-24T05:34:48.861Z,940.71
2018-03-24T05:35:48.872Z,940.68
2018-03-24T05:36:48.890Z,940.7
2018-03-24T05:37:48.896Z,940.73
2018-03-24T05:38:48.908Z,940.71
2018-03-24T05:39:48.923Z,940.7
2018-03-24T05:40:48.936Z,940.69
2018-03-24T05:41:48.948Z,940.7
2018-03-24T05:42:48.960Z,940.73
2018-03-24T05:43:48.974Z,940.72
2018-03-24T05:44:48.993Z,940.7
2018-03-24T05:45:48.999Z,940.71
2018-03-24T05:46:49.019Z,940.73
2018-03-24T05:47:49.026Z,940.72
2018-03-24T05:48:49.088Z,940.71
2018-03-24T05:49:49.049Z,940.72
2018-03-24T05:50:49.064Z,940.69
2018-03-24T05:51:49.075Z,940.71
2018-03-24T05:52:49.089Z,940.71
2018-03-24T05:53:49.102Z,940.75
2018-03-24T05:54:49.115Z,940.74
2018-03-24T05:55:49.126Z,940.68
2018-03-24T05:56:49.142Z,940.68
2018-03-24T05:57:49.156Z,940.68
2018-03-24T05:58:49.167Z,940.68
2018-03-24T05:59:49.179Z,940.72
2018-03-24T06:00:49.192Z,940.72
2018-03-24T06:01:49.204Z,940.7
2018-03-24T06:02:49.216Z,940.73
2018-03-24T06:03:49.230Z,940.67
2018-03-24T06:04:49.293Z,940.69
2018-03-24T06:05:49.257Z,940.67
2018-03-24T06:06:49.269Z,940.69
2018-03-24T06:07:49.282Z,940.71
2018-03-24T06:08:49.295Z,940.68
2018-03-24T06:09:49.312Z,940.72
2018-03-24T06:10:49.330Z,940.67
2018-03-24T06:11:49.341Z,940.72
2018-03-24T06:12:49.346Z,940.68
2018-03-24T06:13:49.359Z,940.68
2018-03-24T06:14:49.374Z,940.61
2018-03-24T06:15:49.385Z,940.62
2018-03-24T06:16:49.399Z,940.65
2018-03-24T06:17:49.410Z,940.6
2018-03-24T06:18:49.423Z,940.62
2018-03-24T06:19:49.486Z,940.65
2018-03-24T06:20:49.450Z,940.62
2018-03-24T06:21:49.461Z,940.65
2018-03-24T06:22:49.476Z,940.62
2018-03-24T06:23:49.488Z,940.63
2018-03-24T06:24:49.499Z,940.61
2018-03-24T06:25:49.513Z,940.62
2018-03-24T06:26:49.530Z,940.61
2018-03-24T06:27:49.540Z,940.66
2018-03-24T06:28:49.552Z,940.65
2018-03-24T06:29:49.565Z,940.67
2018-03-24T06:30:49.578Z,940.66
2018-03-24T06:31:49.593Z,940.65
2018-03-24T06:32:49.605Z,940.62
2018-03-24T06:33:49.619Z,940.65
2018-03-24T06:34:49.683Z,940.7
2018-03-24T06:35:49.646Z,940.67
2018-03-24T06:36:49.658Z,940.63
2018-03-24T06:37:49.672Z,940.64
2018-03-24T06:38:49.686Z,940.64
2018-03-24T06:39:49.798Z,940.62
2018-03-24T06:40:49.711Z,940.58
2018-03-24T06:41:49.724Z,940.59
2018-03-24T06:42:49.736Z,940.61
2018-03-24T06:43:49.750Z,940.6
2018-03-24T06:44:49.830Z,940.61
2018-03-24T06:45:49.783Z,940.62
2018-03-24T06:46:49.791Z,940.64
2018-03-24T06:47:49.804Z,940.65
2018-03-24T06:48:49.820Z,940.64
2018-03-24T06:49:49.833Z,940.56
2018-03-24T06:50:49.845Z,940.63
2018-03-24T06:51:49.858Z,940.58
2018-03-24T06:52:49.872Z,940.62
2018-03-24T06:53:49.885Z,940.61
2018-03-24T06:54:49.899Z,940.64
2018-03-24T06:55:49.912Z,940.66
2018-03-24T06:56:50.131Z,940.67
2018-03-24T06:57:49.938Z,940.66
2018-03-24T06:58:49.952Z,940.68
2018-03-24T06:59:50.016Z,940.69
2018-03-24T07:00:49.980Z,940.69
2018-03-24T07:01:49.993Z,940.68
2018-03-24T07:02:50.011Z,940.71
2018-03-24T07:03:50.022Z,940.63
2018-03-24T07:04:50.034Z,940.63
2018-03-24T07:05:50.049Z,940.68
2018-03-24T07:06:50.064Z,940.69
2018-03-24T07:07:50.076Z,940.68
2018-03-24T07:08:50.089Z,940.64
2018-03-24T07:09:50.110Z,940.64
2018-03-24T07:10:50.118Z,940.63
2018-03-24T07:11:50.132Z,940.64
2018-03-24T07:12:50.144Z,940.64
2018-03-24T07:13:50.158Z,940.67
2018-03-24T07:14:50.223Z,940.67
2018-03-24T07:15:50.224Z,940.69
2018-03-24T07:16:50.200Z,940.69
2018-03-24T07:17:50.218Z,940.62
2018-03-24T07:18:50.228Z,940.6
2018-03-24T07:19:50.242Z,940.68
2018-03-24T07:20:50.256Z,940.67
2018-03-24T07:21:50.272Z,940.68
2018-03-24T07:22:50.300Z,940.65
2018-03-24T07:23:50.300Z,940.67
2018-03-24T07:24:50.312Z,940.72
2018-03-24T07:25:50.327Z,940.7
2018-03-24T07:26:50.341Z,940.73
2018-03-24T07:27:50.355Z,940.71
2018-03-24T07:28:50.369Z,940.72
2018-03-24T07:29:50.435Z,940.71
2018-03-24T07:30:50.398Z,940.71
2018-03-24T07:31:50.413Z,940.75
2018-03-24T07:32:50.426Z,940.75
2018-03-24T07:33:50.441Z,940.74
2018-03-24T07:34:50.455Z,940.73
2018-03-24T07:35:50.470Z,940.73
2018-03-24T07:36:50.484Z,940.77
2018-03-24T07:37:50.556Z,940.71
2018-03-24T07:38:50.514Z,940.76
2018-03-24T07:39:50.527Z,940.81
2018-03-24T07:40:50.541Z,940.8
2018-03-24T07:41:50.556Z,940.79
2018-03-24T07:42:50.570Z,940.8
2018-03-24T07:43:50.585Z,940.85
2018-03-24T07:44:50.653Z,940.78
2018-03-24T07:45:50.614Z,940.81
2018-03-24T07:46:50.629Z,940.82
2018-03-24T07:47:50.643Z,940.84
2018-03-24T07:48:50.660Z,940.81
2018-03-24T07:49:51.974Z,940.73
2018-03-24T07:50:50.687Z,940.74
2018-03-24T07:51:50.716Z,940.74
2018-03-24T07:52:50.717Z,940.73
2018-03-24T07:53:50.732Z,940.76
2018-03-24T07:54:50.745Z,940.78
2018-03-24T07:55:50.761Z,940.75
2018-03-24T07:56:50.775Z,940.79
2018-03-24T07:57:50.790Z,940.76
2018-03-24T07:58:50.806Z,940.79
2018-03-24T07:59:50.826Z,940.78
2018-03-24T08:00:50.835Z,940.78
2018-03-24T08:01:50.874Z,940.78
2018-03-24T08:02:50.866Z,940.76
2018-03-24T08:03:50.880Z,940.77
2018-03-24T08:04:50.894Z,940.8
2018-03-24T08:05:50.909Z,940.81
2018-03-24T08:06:50.925Z,940.79
2018-03-24T08:07:50.941Z,940.78
2018-03-24T08:08:50.956Z,940.76
2018-03-24T08:09:50.971Z,940.83
2018-03-24T08:10:50.986Z,940.83
2018-03-24T08:11:51.001Z,940.85
2018-03-24T08:12:51.016Z,940.77
2018-03-24T08:13:51.032Z,940.77
2018-03-24T08:14:51.046Z,940.78
2018-03-24T08:15:51.062Z,940.78
2018-03-24T08:16:51.097Z,940.79
2018-03-24T08:17:51.091Z,940.73
2018-03-24T08:18:51.112Z,940.77
2018-03-24T08:19:51.120Z,940.81
2018-03-24T08:20:51.136Z,940.75
2018-03-24T08:21:51.152Z,940.78
2018-03-24T08:22:51.165Z,940.81
2018-03-24T08:23:51.181Z,940.85
2018-03-24T08:24:51.198Z,940.77
2018-03-24T08:25:51.212Z,940.77
2018-03-24T08:26:51.229Z,940.79
2018-03-24T08:27:51.245Z,940.76
2018-03-24T08:28:51.258Z,940.76
2018-03-24T08:29:51.283Z,940.78
2018-03-24T08:30:51.290Z,940.78
2018-03-24T08:31:51.305Z,940.85
2018-03-24T08:32:51.319Z,940.77
2018-03-24T08:33:51.335Z,940.81
2018-03-24T08:34:51.359Z,940.78
2018-03-24T08:35:51.372Z,940.79
2018-03-24T08:36:51.383Z,940.74
2018-03-24T08:37:51.399Z,940.73
2018-03-24T08:38:51.421Z,940.74
2018-03-24T08:39:51.435Z,940.72
2018-03-24T08:40:51.446Z,940.78
2018-03-24T08:41:51.462Z,940.8
2018-03-24T08:42:51.489Z,940.79
2018-03-24T08:43:51.501Z,940.75
2018-03-24T08:44:51.511Z,940.76
2018-03-24T08:45:51.525Z,940.76
2018-03-24T08:46:51.540Z,940.78
2018-03-24T08:47:51.556Z,940.77
2018-03-24T08:48:51.572Z,940.76
2018-03-24T08:49:51.588Z,940.79
2018-03-24T08:50:51.603Z,940.8
2018-03-24T08:51:51.620Z,940.79
2018-03-24T08:52:51.635Z,940.78
2018-03-24T08:53:51.652Z,940.77
2018-03-24T08:54:51.666Z,940.75
2018-03-24T08:55:51.683Z,940.8
2018-03-24T08:56:51.699Z,940.79
2018-03-24T08:57:51.717Z,940.77
2018-03-24T08:58:51.733Z,940.75
2018-03-24T08:59:51.747Z,940.72
2018-03-24T09:00:51.764Z,940.79
2018-03-24T09:01:51.781Z,940.74
2018-03-24T09:02:51.799Z,940.79
2018-03-24T09:03:51.813Z,940.81
2018-03-24T09:04:51.838Z,940.75
2018-03-24T09:05:51.846Z,940.71
2018-03-24T09:06:51.862Z,940.74
2018-03-24T09:07:51.879Z,940.72
2018-03-24T09:08:51.896Z,940.74
2018-03-24T09:09:51.912Z,940.75
2018-03-24T09:10:51.929Z,940.74
2018-03-24T09:11:51.947Z,940.73
2018-03-24T09:12:51.962Z,940.74
2018-03-24T09:13:51.979Z,940.74
2018-03-24T09:14:51.995Z,940.73
2018-03-24T09:15:52.014Z,940.72
2018-03-24T09:16:52.033Z,940.74
2018-03-24T09:17:52.046Z,940.64
2018-03-24T09:18:52.062Z,940.62
2018-03-24T09:19:52.082Z,940.62
2018-03-24T09:20:52.097Z,940.65
2018-03-24T09:21:52.114Z,940.67
2018-03-24T09:22:52.130Z,940.6
2018-03-24T09:23:52.147Z,940.62
2018-03-24T09:24:52.165Z,940.62
2018-03-24T09:25:52.182Z,940.62
2018-03-24T09:26:52.201Z,940.72
2018-03-24T09:27:52.217Z,940.63
2018-03-24T09:28:52.234Z,940.61
2018-03-24T09:29:52.252Z,940.66
2018-03-24T09:30:52.270Z,940.66
2018-03-24T09:31:52.286Z,940.61
2018-03-24T09:32:52.303Z,940.68
2018-03-24T09:33:52.321Z,940.69
2018-03-24T09:34:52.339Z,940.68
2018-03-24T09:35:52.355Z,940.76
2018-03-24T09:36:52.374Z,940.74
2018-03-24T09:37:52.395Z,940.68
2018-03-24T09:38:52.408Z,940.73
2018-03-24T09:39:52.426Z,940.74
2018-03-24T09:40:52.445Z,940.72
2018-03-24T09:41:52.472Z,940.77
2018-03-24T09:42:52.482Z,940.71
2018-03-24T09:43:52.501Z,940.67
2018-03-24T09:44:52.521Z,940.69
2018-03-24T09:45:52.540Z,940.7
2018-03-24T09:46:52.558Z,940.74
2018-03-24T09:47:52.581Z,940.7
2018-03-24T09:48:52.599Z,940.72
2018-03-24T09:49:52.618Z,940.7
2018-03-24T09:50:52.640Z,940.76
2018-03-24T09:51:52.661Z,940.77
2018-03-24T09:52:52.780Z,940.79
2018-03-24T09:53:52.702Z,940.78
2018-03-24T09:54:52.726Z,940.85
2018-03-24T09:55:52.748Z,940.79
2018-03-24T09:56:52.784Z,940.79
2018-03-24T09:57:52.793Z,940.74
2018-03-24T09:58:52.817Z,940.73
2018-03-24T09:59:52.842Z,940.79
2018-03-24T10:00:52.862Z,940.82
2018-03-24T10:01:52.886Z,940.77
2018-03-24T10:02:52.909Z,940.88
2018-03-24T10:03:52.934Z,940.78
2018-03-24T10:04:52.976Z,940.86
2018-03-24T10:05:52.984Z,940.85
2018-03-24T10:06:53.007Z,940.78
2018-03-24T10:07:53.031Z,940.8
2018-03-24T10:08:53.057Z,940.89
2018-03-24T10:09:53.083Z,940.81
2018-03-24T10:10:53.117Z,940.87
2018-03-24T10:11:53.132Z,940.82
2018-03-24T10:12:53.165Z,940.77
2018-03-24T10:13:53.192Z,940.85
2018-03-24T10:14:53.207Z,940.87
2018-03-24T10:15:53.234Z,940.83
2018-03-24T10:16:53.260Z,940.82
2018-03-24T10:17:53.286Z,940.88
2018-03-24T10:18:53.310Z,940.92
2018-03-24T10:19:53.338Z,940.86
2018-03-24T10:20:53.361Z,940.83
2018-03-24T10:21:53.395Z,940.82
2018-03-24T10:22:53.413Z,940.91
2018-03-24T10:23:53.440Z,940.83
2018-03-24T10:24:53.465Z,940.87
2018-03-24T10:25:53.491Z,940.97
2018-03-24T10:26:53.521Z,940.93
2018-03-24T10:27:53.545Z,940.99
2018-03-24T10:28:53.586Z,940.95
2018-03-24T10:29:53.596Z,940.9
2018-03-24T10:30:53.625Z,940.87
2018-03-24T10:31:53.650Z,940.88
2018-03-24T10:32:53.677Z,940.89
2018-03-24T10:33:53.707Z,940.88
2018-03-24T10:34:53.733Z,940.9
2018-03-24T10:35:53.760Z,940.9
2018-03-24T10:36:53.783Z,940.87
2018-03-24T10:37:53.810Z,940.97
2018-03-24T10:38:53.839Z,940.92
2018-03-24T10:39:53.866Z,940.92
2018-03-24T10:40:53.892Z,940.91
2018-03-24T10:41:53.920Z,940.91
2018-03-24T10:42:53.948Z,940.95
2018-03-24T10:43:53.974Z,940.97
2018-03-24T10:44:54.003Z,940.95
2018-03-24T10:45:54.030Z,940.99
2018-03-24T10:46:54.059Z,940.96
2018-03-24T10:47:54.088Z,940.93
2018-03-24T10:48:54.114Z,941.02
2018-03-24T10:49:54.142Z,940.95
2018-03-24T10:50:54.221Z,940.99
2018-03-24T10:51:54.198Z,941.05
2018-03-24T10:52:54.225Z,941.16
2018-03-24T10:53:54.276Z,941.09
2018-03-24T10:54:54.282Z,941.08
2018-03-24T10:55:54.312Z,941.02
2018-03-24T10:56:54.339Z,940.95
2018-03-24T10:57:54.368Z,940.96
2018-03-24T10:58:54.396Z,941
2018-03-24T10:59:54.425Z,940.97
2018-03-24T11:00:54.453Z,940.98
2018-03-24T11:01:54.482Z,941.02
2018-03-24T11:02:54.512Z,940.96
2018-03-24T11:03:54.540Z,941.02
2018-03-24T11:04:54.570Z,941.02
2018-03-24T11:05:54.648Z,940.97
2018-03-24T11:06:54.626Z,940.99
2018-03-24T11:07:54.657Z,941.06
2018-03-24T11:08:54.686Z,941.04
2018-03-24T11:09:54.713Z,941
2018-03-24T11:10:54.747Z,941
2018-03-24T11:11:54.773Z,941.14
2018-03-24T11:12:54.803Z,941.05
2018-03-24T11:13:54.832Z,941
2018-03-24T11:14:54.861Z,941.06
2018-03-24T11:15:54.892Z,941.07
2018-03-24T11:16:54.942Z,941.05
2018-03-24T11:17:54.951Z,941.05
2018-03-24T11:18:54.980Z,941.11
2018-03-24T11:19:55.032Z,941.06
2018-03-24T11:20:55.090Z,941.06
2018-03-24T11:21:55.070Z,941.07
2018-03-24T11:22:55.100Z,941.06
2018-03-24T11:23:55.131Z,941.09
2018-03-24T11:24:55.167Z,941.11
2018-03-24T11:25:55.192Z,941.02
2018-03-24T11:26:55.224Z,941.14
2018-03-24T11:27:55.252Z,941.19
2018-03-24T11:28:55.285Z,941.23
2018-03-24T11:29:55.315Z,941.13
2018-03-24T11:30:55.400Z,941.14
2018-03-24T11:31:55.376Z,941.17
2018-03-24T11:32:55.409Z,941.09
2018-03-24T11:33:55.441Z,941.14
2018-03-24T11:34:55.470Z,941.11
2018-03-24T11:35:55.551Z,941.2
2018-03-24T11:36:55.533Z,941.13
2018-03-24T11:37:55.565Z,941.12
2018-03-24T11:38:55.595Z,941.18
2018-03-24T11:39:55.627Z,941.18
2018-03-24T11:40:55.659Z,941.24
2018-03-24T11:41:55.692Z,941.29
2018-03-24T11:42:55.725Z,941.24
2018-03-24T11:43:55.753Z,941.29
2018-03-24T11:44:55.838Z,941.22
2018-03-24T11:45:55.818Z,941.23
2018-03-24T11:46:55.848Z,941.29
2018-03-24T11:47:55.878Z,941.27
2018-03-24T11:48:55.911Z,941.3
2018-03-24T11:49:55.942Z,941.36
2018-03-24T11:50:56.022Z,941.35
2018-03-24T11:51:56.014Z,941.27
2018-03-24T11:52:56.038Z,941.28
2018-03-24T11:53:56.106Z,941.28
2018-03-24T11:54:56.110Z,941.34
2018-03-24T11:55:56.180Z,941.33
2018-03-24T11:56:56.165Z,941.37
2018-03-24T11:57:56.194Z,941.34
2018-03-24T11:58:56.227Z,941.39
2018-03-24T11:59:56.257Z,941.45
2018-03-24T12:00:56.290Z,941.43
2018-03-24T12:01:56.362Z,941.47
2018-03-24T12:02:56.353Z,941.47
2018-03-24T12:03:56.384Z,941.48
2018-03-24T12:04:56.415Z,941.51
2018-03-24T12:05:56.449Z,941.5
2018-03-24T12:06:56.481Z,941.56
2018-03-24T12:07:56.512Z,941.54
2018-03-24T12:08:56.543Z,941.53
2018-03-24T12:09:56.576Z,941.42
2018-03-24T12:10:56.609Z,941.5
2018-03-24T12:11:56.639Z,941.53
2018-03-24T12:12:56.673Z,941.38
2018-03-24T12:13:56.705Z,941.16
2018-03-24T12:14:56.738Z,941.17
2018-03-24T12:15:56.769Z,941.44
2018-03-24T12:16:56.805Z,941.52
2018-03-24T12:17:56.833Z,941.57
2018-03-24T12:18:56.866Z,941.61
2018-03-24T12:19:56.897Z,941.59
2018-03-24T12:20:56.929Z,941.65
2018-03-24T12:21:56.964Z,941.63
2018-03-24T12:22:56.995Z,941.55
2018-03-24T12:23:57.026Z,941.58
2018-03-24T12:24:57.059Z,941.62
2018-03-24T12:25:57.092Z,941.6
2018-03-24T12:26:57.121Z,941.63
2018-03-24T12:27:57.156Z,941.47
2018-03-24T12:28:57.187Z,941.65
2018-03-24T12:29:57.221Z,941.64
2018-03-24T12:30:57.251Z,941.62
2018-03-24T12:31:57.285Z,941.6